createdAt,value
2019-05-21T00:00:26.170Z,19.73
2019-05-21T00:01:01.359Z,19.77
2019-05-21T00:01:38.239Z,19.62
2019-05-21T00:02:13.823Z,19.40
2019-05-21T00:02:48.927Z,20.02
2019-05-21T00:03:25.558Z,19.73
2019-05-21T00:04:01.280Z,20.45
2019-05-21T00:04:36.675Z,20.68
2019-05-21T00:05:12.351Z,20.08
2019-05-21T00:05:48.018Z,20.17
2019-05-21T00:06:23.358Z,18.05
2019-05-21T00:06:59.496Z,18.52
2019-05-21T00:07:35.095Z,18.60
2019-05-21T00:08:10.151Z,17.77
2019-05-21T00:08:45.730Z,18.55
2019-05-21T00:09:21.670Z,18.45
2019-05-21T00:09:57.007Z,18.20
2019-05-21T00:10:32.599Z,17.77
2019-05-21T00:11:09.614Z,18.50
2019-05-21T00:11:44.627Z,19.00
2019-05-21T00:12:20.614Z,17.62
2019-05-21T00:12:56.506Z,18.40
2019-05-21T00:13:31.863Z,17.27
2019-05-21T00:14:07.520Z,17.25
2019-05-21T00:14:43.175Z,17.32
2019-05-21T00:15:18.543Z,18.52
2019-05-21T00:15:55.131Z,17.27
2019-05-21T00:16:31.694Z,18.42
2019-05-21T00:17:07.052Z,18.07
2019-05-21T00:17:42.975Z,17.82
2019-05-21T00:18:18.637Z,17.87
2019-05-21T00:18:53.684Z,18.67
2019-05-21T00:19:29.372Z,16.87
2019-05-21T00:20:06.631Z,17.98
2019-05-21T00:20:42.020Z,17.85
2019-05-21T00:21:17.607Z,17.50
2019-05-21T00:21:53.194Z,17.40
2019-05-21T00:22:28.255Z,16.57
2019-05-21T00:23:17.199Z,17.12
2019-05-21T00:23:53.096Z,17.12
2019-05-21T00:24:29.307Z,16.20
2019-05-21T00:25:06.055Z,16.87
2019-05-21T00:25:42.662Z,15.93
2019-05-21T00:26:18.871Z,16.07
2019-05-21T00:26:54.472Z,16.97
2019-05-21T00:27:30.059Z,15.30
2019-05-21T00:28:41.641Z,15.83
2019-05-21T00:29:53.895Z,15.65
2019-05-21T00:31:05.318Z,15.85
2019-05-21T00:32:17.476Z,15.53
2019-05-21T00:33:29.468Z,14.70
2019-05-21T00:34:43.960Z,15.98
2019-05-21T00:35:54.951Z,16.10
2019-05-21T00:37:07.869Z,15.63
2019-05-21T00:38:19.023Z,15.23
2019-05-21T00:39:30.917Z,15.60
2019-05-21T00:40:43.927Z,15.25
2019-05-21T00:41:55.879Z,16.20
2019-05-21T00:42:33.399Z,16.23
2019-05-21T00:43:09.028Z,15.63
2019-05-21T00:43:56.279Z,17.32
2019-05-21T00:44:33.167Z,16.85
2019-05-21T00:45:10.846Z,15.43
2019-05-21T00:45:46.446Z,16.12
2019-05-21T00:46:21.492Z,15.90
2019-05-21T00:46:57.320Z,16.05
2019-05-21T00:47:32.919Z,15.55
2019-05-21T00:48:07.970Z,15.95
2019-05-21T00:48:43.567Z,16.55
2019-05-21T00:49:19.162Z,16.32
2019-05-21T00:49:54.213Z,16.00
2019-05-21T00:50:29.804Z,16.55
2019-05-21T00:51:05.415Z,17.20
2019-05-21T00:51:40.760Z,16.27
2019-05-21T00:52:16.338Z,16.17
2019-05-21T00:52:52.166Z,15.88
2019-05-21T00:53:27.206Z,16.77
2019-05-21T00:54:03.065Z,15.10
2019-05-21T00:54:38.755Z,16.23
2019-05-21T00:55:13.815Z,15.70
2019-05-21T00:55:49.890Z,15.03
2019-05-21T00:56:25.560Z,15.60
2019-05-21T00:57:00.828Z,15.58
2019-05-21T00:57:36.731Z,16.37
2019-05-21T00:58:12.353Z,16.05
2019-05-21T00:58:47.424Z,15.53
2019-05-21T00:59:23.021Z,15.05
2019-05-21T00:59:58.622Z,15.15
2019-05-21T01:00:33.844Z,14.87
2019-05-21T01:01:09.504Z,14.80
2019-05-21T01:01:45.428Z,15.43
2019-05-21T01:02:20.730Z,14.80
2019-05-21T01:02:56.378Z,14.65
2019-05-21T01:03:32.011Z,14.85
2019-05-21T01:04:07.140Z,14.35
2019-05-21T01:04:43.024Z,15.35
2019-05-21T01:05:18.625Z,15.48
2019-05-21T01:05:53.730Z,14.85
2019-05-21T01:06:29.568Z,15.08
2019-05-21T01:07:05.175Z,15.03
2019-05-21T01:07:40.249Z,14.68
2019-05-21T01:08:15.830Z,16.00
2019-05-21T01:08:51.707Z,15.10
2019-05-21T01:09:26.775Z,15.23
2019-05-21T01:10:02.702Z,14.20
2019-05-21T01:10:38.330Z,14.73
2019-05-21T01:11:13.409Z,15.35
2019-05-21T01:11:49.004Z,14.75
2019-05-21T01:12:24.929Z,14.38
2019-05-21T01:13:00.214Z,14.78
2019-05-21T01:13:35.797Z,13.83
2019-05-21T01:14:11.694Z,13.78
2019-05-21T01:14:46.753Z,14.00
2019-05-21T01:15:22.354Z,14.18
2019-05-21T01:15:58.030Z,14.15
2019-05-21T01:16:33.104Z,14.30
2019-05-21T01:17:08.697Z,14.07
2019-05-21T01:17:45.501Z,13.28
2019-05-21T01:18:20.542Z,13.70
2019-05-21T01:18:56.132Z,13.70
2019-05-21T01:19:31.739Z,13.55
2019-05-21T01:20:07.243Z,14.33
2019-05-21T01:20:42.844Z,13.65
2019-05-21T01:21:18.436Z,13.28
2019-05-21T01:21:53.487Z,14.07
2019-05-21T01:22:30.122Z,13.98
2019-05-21T01:23:05.711Z,14.58
2019-05-21T01:23:40.754Z,14.65
2019-05-21T01:24:16.355Z,13.70
2019-05-21T01:24:51.997Z,13.65
2019-05-21T01:25:27.062Z,14.07
2019-05-21T01:26:02.654Z,13.98
2019-05-21T01:26:38.291Z,13.60
2019-05-21T01:27:13.318Z,14.68
2019-05-21T01:27:49.176Z,14.47
2019-05-21T01:28:25.764Z,14.65
2019-05-21T01:29:00.806Z,14.95
2019-05-21T01:29:36.487Z,15.05
2019-05-21T01:30:12.184Z,15.20
2019-05-21T01:30:47.198Z,16.45
2019-05-21T01:31:22.795Z,16.80
2019-05-21T01:31:58.418Z,16.25
2019-05-21T01:32:33.725Z,16.40
2019-05-21T01:33:09.311Z,15.93
2019-05-21T01:33:44.910Z,15.93
2019-05-21T01:34:20.074Z,15.28
2019-05-21T01:34:55.650Z,14.83
2019-05-21T01:35:31.266Z,15.48
2019-05-21T01:36:06.437Z,15.88
2019-05-21T01:36:42.046Z,16.02
2019-05-21T01:37:17.631Z,15.88
2019-05-21T01:37:53.022Z,16.05
2019-05-21T01:38:28.617Z,17.02
2019-05-21T01:39:05.299Z,16.70
2019-05-21T01:39:40.330Z,16.90
2019-05-21T01:40:15.931Z,17.30
2019-05-21T01:40:51.562Z,17.00
2019-05-21T01:41:26.678Z,17.07
2019-05-21T01:42:02.306Z,16.57
2019-05-21T01:42:37.894Z,16.87
2019-05-21T01:43:13.414Z,16.65
2019-05-21T01:43:49.242Z,17.75
2019-05-21T01:44:25.095Z,17.25
2019-05-21T01:45:00.145Z,17.42
2019-05-21T01:45:36.028Z,16.80
2019-05-21T01:46:11.675Z,16.50
2019-05-21T01:46:46.744Z,18.57
2019-05-21T01:47:22.407Z,17.40
2019-05-21T01:47:58.024Z,19.42
2019-05-21T01:48:33.370Z,17.92
2019-05-21T01:49:08.967Z,17.07
2019-05-21T01:49:44.571Z,17.95
2019-05-21T01:50:19.677Z,18.65
2019-05-21T01:50:55.342Z,17.30
2019-05-21T01:51:30.979Z,19.95
2019-05-21T01:52:06.050Z,18.00
2019-05-21T01:52:42.137Z,19.30
2019-05-21T01:53:17.732Z,20.45
2019-05-21T01:53:53.107Z,21.57
2019-05-21T01:54:28.729Z,22.35
2019-05-21T01:55:04.818Z,21.23
2019-05-21T01:55:39.941Z,20.55
2019-05-21T01:56:15.577Z,20.45
2019-05-21T01:56:51.491Z,19.62
2019-05-21T01:57:26.545Z,21.68
2019-05-21T01:58:02.377Z,22.65
2019-05-21T01:58:38.020Z,21.55
2019-05-21T01:59:14.279Z,22.13
2019-05-21T01:59:49.897Z,23.07
2019-05-21T02:00:25.518Z,22.85
2019-05-21T02:01:01.089Z,22.30
2019-05-21T02:01:36.675Z,23.05
2019-05-21T02:02:12.676Z,23.25
2019-05-21T02:02:47.707Z,23.90
2019-05-21T02:03:23.295Z,23.55
2019-05-21T02:03:58.893Z,23.22
2019-05-21T02:04:33.934Z,22.40
2019-05-21T02:05:09.532Z,26.07
2019-05-21T02:05:45.131Z,24.45
2019-05-21T02:06:20.450Z,24.37
2019-05-21T02:06:56.108Z,25.80
2019-05-21T02:07:31.786Z,24.82
2019-05-21T02:08:06.842Z,27.93
2019-05-21T02:08:42.430Z,26.45
2019-05-21T02:09:18.034Z,27.73
2019-05-21T02:09:59.138Z,25.70
2019-05-21T02:10:34.719Z,25.52
2019-05-21T02:11:10.318Z,28.02
2019-05-21T02:11:45.471Z,28.65
2019-05-21T02:12:21.683Z,28.40
2019-05-21T02:12:57.279Z,27.13
2019-05-21T02:13:32.314Z,28.35
2019-05-21T02:14:07.987Z,28.75
2019-05-21T02:14:44.200Z,29.07
2019-05-21T02:15:19.230Z,28.65
2019-05-21T02:15:55.921Z,30.43
2019-05-21T02:16:31.511Z,28.35
2019-05-21T02:17:06.554Z,28.92
2019-05-21T02:17:42.236Z,28.62
2019-05-21T02:18:17.832Z,28.70
2019-05-21T02:18:52.868Z,29.57
2019-05-21T02:19:28.787Z,28.95
2019-05-21T02:20:04.664Z,29.00
2019-05-21T02:20:39.699Z,28.65
2019-05-21T02:21:15.646Z,30.85
2019-05-21T02:21:51.234Z,28.15
2019-05-21T02:22:26.261Z,30.23
2019-05-21T02:23:01.984Z,29.20
2019-05-21T02:23:37.652Z,30.05
2019-05-21T02:24:12.994Z,30.52
2019-05-21T02:24:48.599Z,31.05
2019-05-21T02:25:24.179Z,29.63
2019-05-21T02:25:59.592Z,31.48
2019-05-21T02:26:35.170Z,29.42
2019-05-21T02:27:10.766Z,31.15
2019-05-21T02:27:45.803Z,31.75
2019-05-21T02:28:22.365Z,31.25
2019-05-21T02:28:57.982Z,33.50
2019-05-21T02:29:33.388Z,32.67
2019-05-21T02:30:10.139Z,33.65
2019-05-21T02:30:46.820Z,31.17
2019-05-21T02:31:21.855Z,31.55
2019-05-21T02:31:57.454Z,32.00
2019-05-21T02:32:34.101Z,31.27
2019-05-21T02:33:10.235Z,32.35
2019-05-21T02:33:45.828Z,31.77
2019-05-21T02:34:21.424Z,31.95
2019-05-21T02:34:56.802Z,32.65
2019-05-21T02:35:32.394Z,31.45
2019-05-21T02:36:08.064Z,33.38
2019-05-21T02:36:43.136Z,32.35
2019-05-21T02:37:18.717Z,32.55
2019-05-21T02:37:54.608Z,31.93
2019-05-21T02:38:29.658Z,33.67
2019-05-21T02:39:07.512Z,33.92
2019-05-21T02:39:43.371Z,32.70
2019-05-21T02:40:19.052Z,35.78
2019-05-21T02:40:54.646Z,34.35
2019-05-21T02:41:30.236Z,32.65
2019-05-21T02:42:05.269Z,36.17
2019-05-21T02:42:40.863Z,35.68
2019-05-21T02:43:16.468Z,36.80
2019-05-21T02:43:51.624Z,34.75
2019-05-21T02:44:27.625Z,34.55
2019-05-21T02:45:03.318Z,34.08
2019-05-21T02:45:38.408Z,34.13
2019-05-21T02:46:13.994Z,35.88
2019-05-21T02:46:49.935Z,35.85
2019-05-21T02:47:25.031Z,36.53
2019-05-21T02:48:00.613Z,33.50
2019-05-21T02:48:36.533Z,33.70
2019-05-21T02:49:11.581Z,35.08
2019-05-21T02:49:47.187Z,34.53
2019-05-21T02:50:22.764Z,34.92
2019-05-21T02:50:57.811Z,35.30
2019-05-21T02:51:33.707Z,35.83
2019-05-21T02:52:09.296Z,34.13
2019-05-21T02:52:44.367Z,33.10
2019-05-21T02:53:20.295Z,33.50
2019-05-21T02:53:56.213Z,34.35
2019-05-21T02:54:41.100Z,34.00
2019-05-21T02:55:08.693Z,34.85
2019-05-21T02:55:44.293Z,33.88
2019-05-21T02:56:19.344Z,35.05
2019-05-21T02:56:55.235Z,34.10
2019-05-21T02:57:41.241Z,36.58
2019-05-21T02:58:16.339Z,35.90
2019-05-21T02:58:52.268Z,35.35
2019-05-21T02:59:27.965Z,36.65
2019-05-21T03:00:05.090Z,34.33
2019-05-21T03:01:05.656Z,34.75
2019-05-21T03:01:53.151Z,35.38
2019-05-21T03:02:36.425Z,33.98
2019-05-21T03:03:12.918Z,35.85
2019-05-21T03:03:48.508Z,38.30
2019-05-21T03:04:23.542Z,37.23
2019-05-21T03:04:59.178Z,35.85
2019-05-21T03:05:34.759Z,36.10
2019-05-21T03:06:14.420Z,34.85
2019-05-21T03:06:47.093Z,37.03
2019-05-21T03:07:25.538Z,36.55
2019-05-21T03:07:59.657Z,34.85
2019-05-21T03:08:35.257Z,35.15
2019-05-21T03:09:10.853Z,34.03
2019-05-21T03:09:46.951Z,33.90
2019-05-21T03:10:22.539Z,34.18
2019-05-21T03:10:58.141Z,33.05
2019-05-21T03:11:33.226Z,33.88
2019-05-21T03:12:08.826Z,33.00
2019-05-21T03:12:44.758Z,33.67
2019-05-21T03:13:19.877Z,34.20
2019-05-21T03:13:55.475Z,33.60
2019-05-21T03:14:31.069Z,32.85
2019-05-21T03:15:06.134Z,33.15
2019-05-21T03:15:42.072Z,36.83
2019-05-21T03:16:17.662Z,33.85
2019-05-21T03:16:52.708Z,34.75
2019-05-21T03:17:28.295Z,33.30
2019-05-21T03:18:04.254Z,32.53
2019-05-21T03:18:39.392Z,34.45
2019-05-21T03:19:16.727Z,33.05
2019-05-21T03:19:52.430Z,33.55
2019-05-21T03:20:27.597Z,32.20
2019-05-21T03:21:03.379Z,31.07
2019-05-21T03:21:39.045Z,32.30
2019-05-21T03:22:14.333Z,33.05
2019-05-21T03:22:49.935Z,32.60
2019-05-21T03:23:25.525Z,32.17
2019-05-21T03:24:00.566Z,31.48
2019-05-21T03:24:36.166Z,32.85
2019-05-21T03:25:11.766Z,32.65
2019-05-21T03:25:46.807Z,33.00
2019-05-21T03:26:22.404Z,35.05
2019-05-21T03:26:58.408Z,33.80
2019-05-21T03:27:33.552Z,32.28
2019-05-21T03:28:09.447Z,33.95
2019-05-21T03:28:45.130Z,35.08
2019-05-21T03:29:20.424Z,36.42
2019-05-21T03:29:56.043Z,33.60
2019-05-21T03:30:31.656Z,34.18
2019-05-21T03:31:06.699Z,35.68
2019-05-21T03:31:42.317Z,33.20
2019-05-21T03:32:18.464Z,36.15
2019-05-21T03:32:53.848Z,35.45
2019-05-21T03:33:29.769Z,35.08
2019-05-21T03:34:05.649Z,34.18
2019-05-21T03:34:40.760Z,37.40
2019-05-21T03:35:17.328Z,37.03
2019-05-21T03:35:52.987Z,35.88
2019-05-21T03:36:33.310Z,34.43
2019-05-21T03:37:05.440Z,34.35
2019-05-21T03:37:41.031Z,37.63
2019-05-21T03:38:16.076Z,36.40
2019-05-21T03:38:51.668Z,37.48
2019-05-21T03:39:27.709Z,36.93
2019-05-21T03:40:03.196Z,37.55
2019-05-21T03:40:38.901Z,38.02
2019-05-21T03:41:14.769Z,39.40
2019-05-21T03:41:49.811Z,38.67
2019-05-21T03:42:25.390Z,38.53
2019-05-21T03:43:00.988Z,40.15
2019-05-21T03:43:36.032Z,41.00
2019-05-21T03:44:12.013Z,38.40
2019-05-21T03:44:58.987Z,37.73
2019-05-21T03:45:24.655Z,41.28
2019-05-21T03:46:00.275Z,40.63
2019-05-21T03:46:35.932Z,39.10
2019-05-21T03:47:11.475Z,41.77
2019-05-21T03:47:47.061Z,39.13
2019-05-21T03:48:22.677Z,46.55
2019-05-21T03:48:57.843Z,39.78
2019-05-21T03:49:33.450Z,39.95
2019-05-21T03:50:09.085Z,44.75
2019-05-21T03:50:44.112Z,48.13
2019-05-21T03:51:19.704Z,44.77
2019-05-21T03:51:55.334Z,41.90
2019-05-21T03:52:30.373Z,40.25
2019-05-21T03:53:05.956Z,38.50
2019-05-21T03:53:41.558Z,39.70
2019-05-21T03:54:16.834Z,40.83
2019-05-21T03:54:52.558Z,41.30
2019-05-21T03:55:28.136Z,41.98
2019-05-21T03:56:03.461Z,46.70
2019-05-21T03:56:39.052Z,44.70
2019-05-21T03:57:14.644Z,42.55
2019-05-21T03:57:49.979Z,42.98
2019-05-21T03:58:25.889Z,40.80
2019-05-21T03:59:02.494Z,41.30
2019-05-21T03:59:37.580Z,42.40
2019-05-21T04:00:13.259Z,41.28
2019-05-21T04:00:49.159Z,41.80
2019-05-21T04:01:24.287Z,41.50
2019-05-21T04:01:59.891Z,41.23
2019-05-21T04:02:35.827Z,39.95
2019-05-21T04:03:10.859Z,39.85
2019-05-21T04:03:46.469Z,38.73
2019-05-21T04:04:22.081Z,41.42
2019-05-21T04:04:57.211Z,41.50
2019-05-21T04:05:32.830Z,42.40
2019-05-21T04:06:09.062Z,38.15
2019-05-21T04:06:51.703Z,41.53
2019-05-21T04:07:21.475Z,39.00
2019-05-21T04:07:57.278Z,39.03
2019-05-21T04:08:32.353Z,37.98
2019-05-21T04:09:08.392Z,36.65
2019-05-21T04:09:43.994Z,37.42
2019-05-21T04:10:20.003Z,38.55
2019-05-21T04:10:55.933Z,38.35
2019-05-21T04:11:31.552Z,38.73
2019-05-21T04:12:06.699Z,36.55
2019-05-21T04:12:42.681Z,38.30
2019-05-21T04:13:18.275Z,38.08
2019-05-21T04:13:53.315Z,38.83
2019-05-21T04:14:51.419Z,41.05
2019-05-21T04:15:29.146Z,43.20
2019-05-21T04:16:10.924Z,36.98
2019-05-21T04:16:56.284Z,39.60
2019-05-21T04:17:38.536Z,40.80
2019-05-21T04:18:17.883Z,40.52
2019-05-21T04:19:05.919Z,42.40
2019-05-21T04:19:41.733Z,39.10
2019-05-21T04:20:16.776Z,39.73
2019-05-21T04:20:52.515Z,42.78
2019-05-21T04:21:28.092Z,42.83
2019-05-21T04:22:03.438Z,44.85
2019-05-21T04:22:52.993Z,41.23
2019-05-21T04:23:28.666Z,42.62
2019-05-21T04:24:03.821Z,39.75
2019-05-21T04:24:39.431Z,39.88
2019-05-21T04:25:15.014Z,40.55
2019-05-21T04:25:50.067Z,39.88
2019-05-21T04:26:25.675Z,42.30
2019-05-21T04:27:01.300Z,42.17
2019-05-21T04:27:36.637Z,41.18
2019-05-21T04:28:12.234Z,44.35
2019-05-21T04:28:47.822Z,40.48
2019-05-21T04:29:22.904Z,39.48
2019-05-21T04:29:58.496Z,37.73
2019-05-21T04:30:34.080Z,39.23
2019-05-21T04:31:09.148Z,40.90
2019-05-21T04:31:44.767Z,39.92
2019-05-21T04:32:20.708Z,38.60
2019-05-21T04:32:56.163Z,41.50
2019-05-21T04:33:31.836Z,39.85
2019-05-21T04:34:07.587Z,39.78
2019-05-21T04:34:42.713Z,40.45
2019-05-21T04:35:18.306Z,37.48
2019-05-21T04:35:53.973Z,37.48
2019-05-21T04:36:29.101Z,38.00
2019-05-21T04:37:10.981Z,38.38
2019-05-21T04:37:42.152Z,38.75
2019-05-21T04:38:17.186Z,39.55
2019-05-21T04:38:52.785Z,38.88
2019-05-21T04:39:28.435Z,38.38
2019-05-21T04:40:03.575Z,38.17
2019-05-21T04:40:39.508Z,39.08
2019-05-21T04:41:15.103Z,39.63
2019-05-21T04:41:50.144Z,38.70
2019-05-21T04:42:25.728Z,38.60
2019-05-21T04:43:02.603Z,41.42
2019-05-21T04:43:38.216Z,42.03
2019-05-21T04:44:13.853Z,43.73
2019-05-21T04:44:50.076Z,44.05
2019-05-21T04:45:25.107Z,42.53
2019-05-21T04:46:00.718Z,42.33
2019-05-21T04:46:36.350Z,42.03
2019-05-21T04:47:11.368Z,41.25
2019-05-21T04:47:46.957Z,41.25
2019-05-21T04:48:22.832Z,41.63
2019-05-21T04:48:58.389Z,45.80
2019-05-21T04:49:34.311Z,41.83
2019-05-21T04:50:09.900Z,41.75
2019-05-21T04:50:44.925Z,43.75
2019-05-21T04:51:20.525Z,43.17
2019-05-21T04:51:56.108Z,42.65
2019-05-21T04:52:31.384Z,43.10
2019-05-21T04:53:06.974Z,43.42
2019-05-21T04:53:42.867Z,41.15
2019-05-21T04:54:17.909Z,41.02
2019-05-21T04:54:53.515Z,40.98
2019-05-21T04:55:29.120Z,39.67
2019-05-21T04:56:04.757Z,40.88
2019-05-21T04:56:40.661Z,39.60
2019-05-21T04:57:16.510Z,40.23
2019-05-21T04:57:51.580Z,39.05
2019-05-21T04:58:27.239Z,41.20
2019-05-21T04:59:02.834Z,36.68
2019-05-21T04:59:37.876Z,39.18
2019-05-21T05:00:14.491Z,38.10
2019-05-21T05:00:50.130Z,37.42
2019-05-21T05:01:25.200Z,37.50
2019-05-21T05:02:00.791Z,35.78
2019-05-21T05:02:36.495Z,36.60
2019-05-21T05:03:11.556Z,35.68
2019-05-21T05:03:47.145Z,36.00
2019-05-21T05:04:22.775Z,35.05
2019-05-21T05:04:58.169Z,36.48
2019-05-21T05:05:33.763Z,35.28
2019-05-21T05:06:09.361Z,36.33
2019-05-21T05:06:44.387Z,35.28
2019-05-21T05:07:28.129Z,35.30
2019-05-21T05:07:57.617Z,35.28
2019-05-21T05:08:32.905Z,34.73
2019-05-21T05:09:08.800Z,34.20
2019-05-21T05:09:44.399Z,34.15
2019-05-21T05:10:20.672Z,34.15
2019-05-21T05:10:56.266Z,34.43
2019-05-21T05:11:32.103Z,34.00
2019-05-21T05:12:07.143Z,34.05
2019-05-21T05:12:42.744Z,34.67
2019-05-21T05:13:18.345Z,34.78
2019-05-21T05:13:53.386Z,32.85
2019-05-21T05:14:28.979Z,32.90
2019-05-21T05:15:05.148Z,33.48
2019-05-21T05:15:40.495Z,32.40
2019-05-21T05:16:16.070Z,32.17
2019-05-21T05:16:52.704Z,32.42
2019-05-21T05:17:27.788Z,32.00
2019-05-21T05:18:03.479Z,30.62
2019-05-21T05:18:39.071Z,32.42
2019-05-21T05:19:14.103Z,32.95
2019-05-21T05:19:49.703Z,34.23
2019-05-21T05:20:25.320Z,34.03
2019-05-21T05:21:00.356Z,33.25
2019-05-21T05:21:35.953Z,34.00
2019-05-21T05:22:11.575Z,32.80
2019-05-21T05:22:46.639Z,35.90
2019-05-21T05:23:22.231Z,35.60
2019-05-21T05:23:57.861Z,33.38
2019-05-21T05:24:32.950Z,35.33
2019-05-21T05:25:08.560Z,34.55
2019-05-21T05:25:44.138Z,34.23
2019-05-21T05:26:19.186Z,33.92
2019-05-21T05:26:54.783Z,34.75
2019-05-21T05:27:30.640Z,33.73
2019-05-21T05:28:05.707Z,33.48
2019-05-21T05:28:41.289Z,33.83
2019-05-21T05:29:17.198Z,33.25
2019-05-21T05:29:52.230Z,34.27
2019-05-21T05:30:28.295Z,34.35
2019-05-21T05:31:04.288Z,34.00
2019-05-21T05:31:39.711Z,33.90
2019-05-21T05:32:15.312Z,34.10
2019-05-21T05:32:50.895Z,33.20
2019-05-21T05:33:25.952Z,34.05
2019-05-21T05:34:01.653Z,33.23
2019-05-21T05:34:37.263Z,31.50
2019-05-21T05:35:12.425Z,31.95
2019-05-21T05:35:48.020Z,31.23
2019-05-21T05:36:23.625Z,31.12
2019-05-21T05:36:59.028Z,30.00
2019-05-21T05:37:43.177Z,29.27
2019-05-21T05:38:12.093Z,29.15
2019-05-21T05:38:47.509Z,28.27
2019-05-21T05:39:23.129Z,28.90
2019-05-21T05:39:58.770Z,29.50
2019-05-21T05:40:34.113Z,29.25
2019-05-21T05:41:09.747Z,28.77
2019-05-21T05:41:45.350Z,27.27
2019-05-21T05:42:20.378Z,27.52
2019-05-21T05:42:55.991Z,28.12
2019-05-21T05:43:31.628Z,27.50
2019-05-21T05:44:06.861Z,27.25
2019-05-21T05:44:42.526Z,26.87
2019-05-21T05:45:18.206Z,26.68
2019-05-21T05:45:53.241Z,26.68
2019-05-21T05:46:30.054Z,26.12
2019-05-21T05:47:05.654Z,26.95
2019-05-21T05:47:40.705Z,26.25
2019-05-21T05:48:16.778Z,25.57
2019-05-21T05:48:57.530Z,25.43
2019-05-21T05:49:37.839Z,26.27
2019-05-21T05:50:15.277Z,25.43
2019-05-21T05:50:52.435Z,25.65
2019-05-21T05:51:27.457Z,26.60
2019-05-21T05:52:03.116Z,24.70
2019-05-21T05:52:38.971Z,27.25
2019-05-21T05:53:14.028Z,26.85
2019-05-21T05:53:59.002Z,25.75
2019-05-21T05:54:34.871Z,24.67
2019-05-21T05:55:10.649Z,25.82
2019-05-21T05:55:46.310Z,25.25
2019-05-21T05:56:21.959Z,25.02
2019-05-21T05:56:57.051Z,25.30
2019-05-21T05:57:32.649Z,25.68
2019-05-21T05:58:08.247Z,25.35
2019-05-21T05:58:43.333Z,25.35
2019-05-21T05:59:18.936Z,25.27
2019-05-21T05:59:54.528Z,25.65
2019-05-21T06:00:29.764Z,25.68
2019-05-21T06:01:05.361Z,25.48
2019-05-21T06:01:41.211Z,25.60
2019-05-21T06:02:16.336Z,25.30
2019-05-21T06:02:52.574Z,24.55
2019-05-21T06:03:28.255Z,24.00
2019-05-21T06:04:03.470Z,25.23
2019-05-21T06:04:39.139Z,24.35
2019-05-21T06:05:14.844Z,24.63
2019-05-21T06:05:50.214Z,24.12
2019-05-21T06:06:26.799Z,24.65
2019-05-21T06:07:03.459Z,23.83
2019-05-21T06:07:38.838Z,23.32
2019-05-21T06:08:14.423Z,24.30
2019-05-21T06:08:50.402Z,24.27
2019-05-21T06:09:25.498Z,25.90
2019-05-21T06:10:01.150Z,26.02
2019-05-21T06:10:39.967Z,25.37
2019-05-21T06:11:13.494Z,24.98
2019-05-21T06:11:49.096Z,25.43
2019-05-21T06:12:25.112Z,25.48
2019-05-21T06:13:00.879Z,24.75
2019-05-21T06:13:36.743Z,25.55
2019-05-21T06:14:12.327Z,25.77
2019-05-21T06:14:47.620Z,25.48
2019-05-21T06:15:23.211Z,25.50
2019-05-21T06:15:59.046Z,24.45
2019-05-21T06:16:34.139Z,24.43
2019-05-21T06:17:09.771Z,24.05
2019-05-21T06:17:45.372Z,24.15
2019-05-21T06:18:20.412Z,24.23
2019-05-21T06:18:56.051Z,24.02
2019-05-21T06:19:31.655Z,25.30
2019-05-21T06:20:06.704Z,24.90
2019-05-21T06:20:42.535Z,24.40
2019-05-21T06:21:18.126Z,24.30
2019-05-21T06:21:53.175Z,23.20
2019-05-21T06:22:28.755Z,24.30
2019-05-21T06:23:04.524Z,24.32
2019-05-21T06:23:39.562Z,24.27
2019-05-21T06:24:15.155Z,25.15
2019-05-21T06:24:50.990Z,24.67
2019-05-21T06:25:27.005Z,25.37
2019-05-21T06:26:02.583Z,24.20
2019-05-21T06:26:38.172Z,24.25
2019-05-21T06:27:13.241Z,26.02
2019-05-21T06:27:48.840Z,26.40
2019-05-21T06:28:24.438Z,26.65
2019-05-21T06:28:59.583Z,27.30
2019-05-21T06:29:39.002Z,26.93
2019-05-21T06:30:12.463Z,26.75
2019-05-21T06:30:47.592Z,26.90
2019-05-21T06:31:23.201Z,27.70
2019-05-21T06:31:58.808Z,26.17
2019-05-21T06:32:34.105Z,26.25
2019-05-21T06:33:10.009Z,27.93
2019-05-21T06:33:45.914Z,26.97
2019-05-21T06:34:20.974Z,27.22
2019-05-21T06:34:56.607Z,25.97
2019-05-21T06:35:32.251Z,26.17
2019-05-21T06:36:07.320Z,24.65
2019-05-21T06:36:42.927Z,25.95
2019-05-21T06:37:18.550Z,24.70
2019-05-21T06:37:53.717Z,26.30
2019-05-21T06:38:29.303Z,25.27
2019-05-21T06:39:06.273Z,24.80
2019-05-21T06:39:41.806Z,25.15
2019-05-21T06:40:17.660Z,23.95
2019-05-21T06:40:53.255Z,24.47
2019-05-21T06:41:28.326Z,23.77
2019-05-21T06:42:04.197Z,24.75
2019-05-21T06:42:39.799Z,24.60
2019-05-21T06:43:14.845Z,23.40
2019-05-21T06:43:50.438Z,23.70
2019-05-21T06:44:26.043Z,23.95
2019-05-21T06:45:01.221Z,22.42
2019-05-21T06:45:37.206Z,24.27
2019-05-21T06:46:12.803Z,23.18
2019-05-21T06:46:47.854Z,23.80
2019-05-21T06:47:23.449Z,23.12
2019-05-21T06:47:59.305Z,22.77
2019-05-21T06:48:34.343Z,24.20
2019-05-21T06:49:10.182Z,23.62
2019-05-21T06:49:46.396Z,24.20
2019-05-21T06:50:21.457Z,23.10
2019-05-21T06:50:57.058Z,23.15
2019-05-21T06:51:32.935Z,22.02
2019-05-21T06:52:08.064Z,21.90
2019-05-21T06:52:43.675Z,22.58
2019-05-21T06:53:19.279Z,22.48
2019-05-21T06:53:54.420Z,23.10
2019-05-21T06:54:30.317Z,23.25
2019-05-21T06:55:05.944Z,22.48
2019-05-21T06:55:41.256Z,23.05
2019-05-21T06:56:16.911Z,22.17
2019-05-21T06:56:52.740Z,22.48
2019-05-21T06:57:27.781Z,22.58
2019-05-21T06:58:03.432Z,22.37
2019-05-21T06:58:39.019Z,21.87
2019-05-21T06:59:14.071Z,22.60
2019-05-21T06:59:49.740Z,22.70
2019-05-21T07:00:25.331Z,23.05
2019-05-21T07:01:00.371Z,22.87
2019-05-21T07:01:36.041Z,22.13
2019-05-21T07:02:11.662Z,22.70
2019-05-21T07:02:46.816Z,22.55
2019-05-21T07:03:22.420Z,21.87
2019-05-21T07:03:58.355Z,23.00
2019-05-21T07:04:33.512Z,23.18
2019-05-21T07:05:10.081Z,23.45
2019-05-21T07:05:58.524Z,24.10
2019-05-21T07:06:22.431Z,23.57
2019-05-21T07:06:59.279Z,24.12
2019-05-21T07:07:35.215Z,23.67
2019-05-21T07:08:10.610Z,24.15
2019-05-21T07:08:46.255Z,23.05
2019-05-21T07:09:22.208Z,22.95
2019-05-21T07:09:57.339Z,23.83
2019-05-21T07:10:32.949Z,24.00
2019-05-21T07:11:08.911Z,23.98
2019-05-21T07:11:44.290Z,23.92
2019-05-21T07:12:19.888Z,26.35
2019-05-21T07:12:55.667Z,25.23
2019-05-21T07:13:31.257Z,25.95
2019-05-21T07:14:07.238Z,25.25
2019-05-21T07:14:42.835Z,25.45
2019-05-21T07:15:17.950Z,25.25
2019-05-21T07:15:54.224Z,26.52
2019-05-21T07:16:29.904Z,27.50
2019-05-21T07:17:04.954Z,26.20
2019-05-21T07:17:40.896Z,26.87
2019-05-21T07:18:17.172Z,26.42
2019-05-21T07:18:52.216Z,26.35
2019-05-21T07:19:27.798Z,26.48
2019-05-21T07:20:03.546Z,26.07
2019-05-21T07:20:38.836Z,25.77
2019-05-21T07:21:14.715Z,26.68
2019-05-21T07:21:50.344Z,25.68
2019-05-21T07:22:25.379Z,25.60
2019-05-21T07:23:01.062Z,26.50
2019-05-21T07:23:36.727Z,25.70
2019-05-21T07:24:12.031Z,25.10
2019-05-21T07:24:47.615Z,23.73
2019-05-21T07:25:23.207Z,26.73
2019-05-21T07:25:58.601Z,24.90
2019-05-21T07:26:34.219Z,25.90
2019-05-21T07:27:10.186Z,25.62
2019-05-21T07:27:45.244Z,25.57
2019-05-21T07:28:20.846Z,25.50
2019-05-21T07:28:57.265Z,26.23
2019-05-21T07:29:32.672Z,25.15
2019-05-21T07:30:08.414Z,31.57
2019-05-21T07:30:44.297Z,25.00
2019-05-21T07:31:19.360Z,28.07
2019-05-21T07:31:54.955Z,27.27
2019-05-21T07:32:30.885Z,26.97
2019-05-21T07:33:06.749Z,28.77
2019-05-21T07:33:42.667Z,27.45
2019-05-21T07:34:18.287Z,27.15
2019-05-21T07:34:53.379Z,27.10
2019-05-21T07:35:29.028Z,26.45
2019-05-21T07:36:04.863Z,28.15
2019-05-21T07:36:40.187Z,27.50
2019-05-21T07:37:16.178Z,28.52
2019-05-21T07:37:51.774Z,29.45
2019-05-21T07:38:27.147Z,28.23
2019-05-21T07:39:02.783Z,28.50
2019-05-21T07:39:38.493Z,28.32
2019-05-21T07:40:13.543Z,28.62
2019-05-21T07:40:49.521Z,27.95
2019-05-21T07:41:25.172Z,26.70
2019-05-21T07:42:00.206Z,27.70
2019-05-21T07:42:35.817Z,30.72
2019-05-21T07:43:11.430Z,28.77
2019-05-21T07:43:47.552Z,28.98
2019-05-21T07:44:23.154Z,28.50
2019-05-21T07:44:58.818Z,28.73
2019-05-21T07:45:33.858Z,29.23
2019-05-21T07:46:09.467Z,29.20
2019-05-21T07:46:45.425Z,28.62
2019-05-21T07:47:20.562Z,27.73
2019-05-21T07:47:56.138Z,27.52
2019-05-21T07:48:31.723Z,26.90
2019-05-21T07:49:06.762Z,27.10